Time;durP1;ratioP1;P1;durP2;ratioP2;P2;SDS_P1;SDS_P2;PMS_P1;PMS_P2;Temp;Humidity;BMP_temperature;BMP_pressure;BME280_temperature;BME280_humidity;BME280_pressure;Samples;Min_cycle;Max_cycle;Signal;HPM_P1;HPM_P2
2022/03/28 00:01:32;;;;;;;36.20;14.60;;;8.20;99.90;;;;;;5109644;28;20062;-61
2022/03/28 00:03:58;;;;;;;31.73;14.40;;;8.20;99.90;;;;;;5107706;28;20116;-59
2022/03/28 00:06:24;;;;;;;35.28;14.18;;;8.20;99.90;;;;;;5102211;28;20126;-63
2022/03/28 00:08:50;;;;;;;30.80;13.40;;;8.20;99.90;;;;;;5110275;28;20808;-62
2022/03/28 00:11:17;;;;;;;25.00;12.90;;;8.20;99.90;;;;;;5103434;28;20107;-63
2022/03/28 00:13:44;;;;;;;28.23;13.40;;;8.10;99.90;;;;;;5106341;28;20409;-61
2022/03/28 00:16:10;;;;;;;27.17;12.63;;;8.10;99.90;;;;;;5100952;28;20466;-63
2022/03/28 00:18:36;;;;;;;27.40;12.63;;;8.00;99.90;;;;;;5104993;28;20496;-61
2022/03/28 00:21:02;;;;;;;27.40;13.77;;;8.00;99.90;;;;;;5105800;28;20023;-64
2022/03/28 00:23:27;;;;;;;26.92;12.93;;;8.00;99.90;;;;;;5111936;28;20107;-64
2022/03/28 00:25:53;;;;;;;27.23;14.02;;;8.00;99.90;;;;;;5105404;28;20436;-64
2022/03/28 00:28:19;;;;;;;32.95;14.30;;;7.90;99.90;;;;;;5109843;28;20077;-64
2022/03/28 00:30:44;;;;;;;31.50;14.45;;;7.90;99.90;;;;;;5101450;28;20512;-63
2022/03/28 00:33:10;;;;;;;32.70;14.30;;;7.90;99.90;;;;;;5104017;28;20023;-64
2022/03/28 00:35:36;;;;;;;28.20;13.57;;;7.80;99.90;;;;;;5106097;28;20028;-63
2022/03/28 00:38:05;;;;;;;30.60;15.18;;;7.70;99.90;;;;;;5110196;28;20020;-62
2022/03/28 00:40:32;;;;;;;33.80;15.15;;;7.60;99.90;;;;;;5102659;28;20111;-62
2022/03/28 00:43:03;;;;;;;42.58;16.25;;;7.60;99.90;;;;;;5107424;28;20069;-63
2022/03/28 00:45:30;;;;;;;31.77;15.02;;;7.50;99.90;;;;;;5100648;28;20028;-64
2022/03/28 00:47:55;;;;;;;28.60;13.65;;;7.60;99.90;;;;;;5111023;28;20032;-63
2022/03/28 00:50:21;;;;;;;31.55;15.23;;;7.60;99.90;;;;;;5103971;28;20092;-64
2022/03/28 00:52:47;;;;;;;32.33;14.25;;;7.60;99.90;;;;;;5111032;28;20127;-63
2022/03/28 00:55:12;;;;;;;30.75;14.60;;;7.60;99.90;;;;;;5104699;28;20024;-63
2022/03/28 00:57:38;;;;;;;27.25;12.50;;;7.60;99.90;;;;;;5106006;28;20031;-64
2022/03/28 01:00:07;;;;;;;33.33;14.02;;;7.60;99.90;;;;;;5105469;28;20019;-64
2022/03/28 01:02:32;;;;;;;36.35;13.82;;;7.60;99.90;;;;;;5106327;28;20089;-60
2022/03/28 01:04:59;;;;;;;28.90;14.35;;;7.50;99.90;;;;;;5083803;28;20443;-63
2022/03/28 01:07:27;;;;;;;29.70;14.35;;;7.40;99.90;;;;;;5107096;28;20035;-64
2022/03/28 01:09:58;;;;;;;34.88;14.10;;;7.40;99.90;;;;;;5105925;28;20437;-62
2022/03/28 01:12:26;;;;;;;32.95;15.05;;;7.40;99.90;;;;;;5104737;28;20102;-62
2022/03/28 01:14:53;;;;;;;28.95;13.90;;;7.40;99.90;;;;;;5103176;28;20091;-60
2022/03/28 01:20:16;;;;;;;25.27;13.88;;;7.40;99.90;;;;;;5069569;28;20129;-62
2022/03/28 01:22:42;;;;;;;34.60;14.95;;;7.50;99.90;;;;;;5106658;28;20020;-62
2022/03/28 01:25:08;;;;;;;27.17;13.18;;;7.50;99.90;;;;;;5104015;28;20059;-64
2022/03/28 01:27:37;;;;;;;32.97;14.32;;;7.40;99.90;;;;;;5103840;28;20027;-63
2022/03/28 01:30:06;;;;;;;25.98;12.98;;;7.20;99.90;;;;;;5105228;28;20473;-63
2022/03/28 01:32:31;;;;;;;29.30;14.32;;;7.30;99.90;;;;;;5105669;28;20038;-63
2022/03/28 01:34:57;;;;;;;26.95;13.55;;;7.30;99.90;;;;;;5107203;28;20393;-61
2022/03/28 01:37:23;;;;;;;35.88;14.00;;;7.20;99.90;;;;;;5110238;28;20038;-64
2022/03/28 01:39:49;;;;;;;35.42;15.18;;;7.20;99.90;;;;;;5102337;28;20028;-57
2022/03/28 01:42:14;;;;;;;28.90;13.70;;;7.10;99.90;;;;;;5104636;28;20020;-58
2022/03/28 01:44:40;;;;;;;29.23;13.68;;;7.00;99.90;;;;;;5108297;28;20030;-63
2022/03/28 01:47:06;;;;;;;30.30;14.32;;;6.90;99.90;;;;;;5110703;28;20346;-64
2022/03/28 01:49:31;;;;;;;32.20;13.68;;;6.90;99.90;;;;;;5106527;28;20020;-63
2022/03/28 01:51:57;;;;;;;32.20;15.05;;;6.90;99.90;;;;;;5104065;28;20524;-62
2022/03/28 01:54:22;;;;;;;37.13;14.55;;;6.80;99.90;;;;;;5102687;28;20436;-61
2022/03/28 01:56:48;;;;;;;35.65;14.45;;;6.80;99.90;;;;;;5104801;28;20023;-61
2022/03/28 01:59:14;;;;;;;35.17;14.95;;;6.80;99.90;;;;;;5100517;28;20117;-62
2022/03/28 02:01:39;;;;;;;35.50;14.23;;;6.90;99.90;;;;;;5110000;28;20123;-63
2022/03/28 02:04:05;;;;;;;39.60;16.48;;;6.90;99.90;;;;;;5106439;28;20811;-60
2022/03/28 02:06:34;;;;;;;32.00;14.75;;;7.00;99.90;;;;;;5104127;28;20049;-63
2022/03/28 02:09:00;;;;;;;32.25;15.07;;;6.90;99.90;;;;;;5101346;28;20027;-63
2022/03/28 02:11:26;;;;;;;27.05;13.13;;;6.90;99.90;;;;;;5108113;28;20019;-64
2022/03/28 02:13:52;;;;;;;28.77;13.40;;;6.80;99.90;;;;;;5110435;28;20012;-62
2022/03/28 02:16:17;;;;;;;32.30;15.00;;;6.80;99.90;;;;;;5106352;28;20043;-59
2022/03/28 02:18:43;;;;;;;36.00;15.27;;;6.90;99.90;;;;;;5085693;28;20035;-60
2022/03/28 02:21:08;;;;;;;34.15;16.20;;;6.80;99.90;;;;;;5106980;28;20031;-62
2022/03/28 02:23:34;;;;;;;29.30;14.40;;;6.70;99.90;;;;;;5103991;28;20030;-64
2022/03/28 02:26:00;;;;;;;35.25;15.32;;;6.70;99.90;;;;;;5098298;28;20027;-62
2022/03/28 02:28:26;;;;;;;32.75;13.73;;;6.80;99.90;;;;;;5103455;28;20031;-63
2022/03/28 02:30:53;;;;;;;32.53;14.93;;;6.80;99.90;;;;;;5105085;28;20031;-63
2022/03/28 02:33:19;;;;;;;31.00;14.95;;;6.70;99.90;;;;;;5108495;28;20110;-64
2022/03/28 02:35:45;;;;;;;28.90;14.60;;;6.60;99.90;;;;;;5107168;28;20161;-64
2022/03/28 02:38:11;;;;;;;33.63;14.85;;;6.60;99.90;;;;;;5103260;28;20542;-64
2022/03/28 02:40:36;;;;;;;36.47;16.48;;;6.60;99.90;;;;;;5099580;28;20938;-64
2022/03/28 02:43:03;;;;;;;42.17;16.42;;;6.60;99.90;;;;;;5107977;28;20027;-63
2022/03/28 02:45:32;;;;;;;42.83;18.42;;;6.60;99.90;;;;;;5099966;28;20024;-63
2022/03/28 02:48:01;;;;;;;54.33;19.05;;;6.60;99.90;;;;;;5097192;28;20084;-60
2022/03/28 02:50:29;;;;;;;39.78;18.10;;;6.60;99.90;;;;;;5097376;28;20504;-62
2022/03/28 02:52:55;;;;;;;45.83;21.10;;;6.70;99.90;;;;;;5102724;28;20069;-63
2022/03/28 02:55:21;;;;;;;47.10;19.60;;;6.70;99.90;;;;;;5099670;28;20374;-63
2022/03/28 02:57:46;;;;;;;35.63;16.88;;;6.60;99.90;;;;;;5106779;28;20058;-64
2022/03/28 03:00:13;;;;;;;44.65;20.23;;;6.50;99.90;;;;;;5100510;28;20031;-63
2022/03/28 03:02:40;;;;;;;40.00;19.83;;;6.40;99.90;;;;;;5102122;28;20042;-62
2022/03/28 03:05:07;;;;;;;45.20;20.25;;;6.50;99.90;;;;;;5106177;28;20477;-63
2022/03/28 03:07:33;;;;;;;44.92;19.05;;;6.40;99.90;;;;;;5102045;28;20111;-63
2022/03/28 03:09:59;;;;;;;33.03;17.45;;;6.40;99.90;;;;;;5104797;28;20107;-64
2022/03/28 03:12:24;;;;;;;37.05;17.17;;;6.40;99.90;;;;;;5108048;28;20060;-61
2022/03/28 03:14:51;;;;;;;34.38;15.65;;;6.40;99.90;;;;;;5107556;28;20024;-62
2022/03/28 03:17:17;;;;;;;43.10;18.02;;;6.30;99.90;;;;;;5107583;28;20043;-64
2022/03/28 03:19:44;;;;;;;38.05;17.73;;;6.20;99.90;;;;;;5105586;28;20094;-62
2022/03/28 03:22:10;;;;;;;37.00;16.45;;;6.10;99.90;;;;;;5098412;28;20020;-64
2022/03/28 03:24:36;;;;;;;32.40;16.70;;;6.00;99.90;;;;;;5107504;28;20032;-64
2022/03/28 03:27:01;;;;;;;41.00;17.23;;;5.90;99.90;;;;;;5087682;28;20028;-63
2022/03/28 03:29:27;;;;;;;34.30;16.83;;;6.00;99.90;;;;;;5107608;28;20401;-62
2022/03/28 03:31:52;;;;;;;37.28;18.83;;;6.10;99.90;;;;;;5106215;28;20077;-63
2022/03/28 03:34:19;;;;;;;45.58;19.10;;;6.20;99.90;;;;;;5102898;28;20474;-62
2022/03/28 03:36:45;;;;;;;36.67;17.08;;;6.30;99.90;;;;;;5095993;28;20024;-63
2022/03/28 03:39:10;;;;;;;42.17;18.08;;;6.30;99.90;;;;;;5105596;28;20024;-65
2022/03/28 03:41:36;;;;;;;39.95;18.27;;;6.30;99.90;;;;;;5102902;28;20024;-64
2022/03/28 03:44:01;;;;;;;39.72;18.38;;;6.20;99.90;;;;;;5101077;28;20028;-61
2022/03/28 03:46:27;;;;;;;42.13;18.30;;;6.10;99.90;;;;;;5106688;28;20026;-63
2022/03/28 03:48:52;;;;;;;38.90;18.30;;;6.20;99.90;;;;;;5112588;28;20497;-64
2022/03/28 03:51:18;;;;;;;46.03;18.05;;;6.30;99.90;;;;;;5109885;28;20027;-63
2022/03/28 03:53:44;;;;;;;39.13;17.52;;;6.30;99.90;;;;;;5110781;28;20080;-64
2022/03/28 03:56:09;;;;;;;45.55;18.27;;;6.30;99.90;;;;;;5101295;28;20633;-64
2022/03/28 03:58:35;;;;;;;53.70;19.02;;;6.30;99.90;;;;;;5103037;28;20443;-61
2022/03/28 04:01:01;;;;;;;39.47;17.95;;;6.30;99.90;;;;;;5105863;28;20077;-64
2022/03/28 04:03:26;;;;;;;37.92;17.05;;;6.40;99.90;;;;;;5111443;28;20054;-64
2022/03/28 04:05:52;;;;;;;39.00;18.75;;;6.40;99.90;;;;;;5104660;28;20134;-63
2022/03/28 04:08:17;;;;;;;43.47;19.42;;;6.30;99.90;;;;;;5104576;28;20153;-64
2022/03/28 04:10:43;;;;;;;44.30;18.35;;;6.10;99.90;;;;;;5109054;28;20067;-63
2022/03/28 04:13:10;;;;;;;44.42;19.25;;;6.00;99.90;;;;;;5102641;28;20099;-63
2022/03/28 04:15:36;;;;;;;41.00;17.67;;;5.90;99.90;;;;;;5103837;28;20016;-64
2022/03/28 04:18:01;;;;;;;51.80;19.52;;;5.90;99.90;;;;;;5109102;28;20539;-64
2022/03/28 04:20:28;;;;;;;43.33;18.25;;;5.90;99.90;;;;;;5105015;28;20115;-64
2022/03/28 04:22:53;;;;;;;45.35;18.80;;;5.80;99.90;;;;;;5104632;28;20160;-61
2022/03/28 04:25:19;;;;;;;42.22;17.85;;;5.80;99.90;;;;;;5106042;28;20538;-61
2022/03/28 04:27:45;;;;;;;38.08;17.88;;;5.80;99.90;;;;;;5106861;28;20036;-64
2022/03/28 04:30:12;;;;;;;48.47;19.25;;;5.90;99.90;;;;;;5105257;28;20089;-60
2022/03/28 04:32:38;;;;;;;51.45;21.67;;;6.00;99.90;;;;;;5114299;27;20027;-63
2022/03/28 04:35:05;;;;;;;48.70;19.75;;;6.00;99.90;;;;;;5101527;28;20016;-61
2022/03/28 04:37:38;;;;;;;48.65;20.75;;;5.90;99.90;;;;;;5102347;28;20066;-62
2022/03/28 04:40:06;;;;;;;46.15;20.77;;;5.70;99.90;;;;;;5097482;28;20054;-61
2022/03/28 04:42:32;;;;;;;50.85;21.77;;;5.70;99.90;;;;;;5111794;22;20041;-61
2022/03/28 04:44:58;;;;;;;55.58;22.05;;;5.70;99.90;;;;;;5071899;28;20158;-60
2022/03/28 04:47:24;;;;;;;58.40;23.90;;;5.70;99.90;;;;;;5071208;28;20027;-58
2022/03/28 04:49:49;;;;;;;55.42;23.38;;;5.70;99.90;;;;;;5065143;28;20036;-58
2022/03/28 04:52:15;;;;;;;59.22;22.77;;;5.70;99.90;;;;;;5069497;28;20017;-60
2022/03/28 04:54:40;;;;;;;56.47;22.98;;;5.70;99.90;;;;;;5069749;28;20023;-60
2022/03/28 04:57:06;;;;;;;49.40;22.30;;;5.70;99.90;;;;;;5065197;28;20498;-58
2022/03/28 04:59:32;;;;;;;49.15;20.55;;;5.70;99.90;;;;;;5069425;28;20099;-58
2022/03/28 05:01:59;;;;;;;56.97;22.17;;;5.70;99.90;;;;;;5068951;28;20043;-58
2022/03/28 05:04:25;;;;;;;58.75;24.02;;;5.60;99.90;;;;;;5067449;28;20113;-58
2022/03/28 05:06:50;;;;;;;55.70;21.92;;;5.60;99.90;;;;;;5065402;28;20032;-58
2022/03/28 05:09:16;;;;;;;52.83;20.58;;;5.50;99.90;;;;;;5045729;28;20406;-59
2022/03/28 05:11:42;;;;;;;48.95;19.80;;;5.40;99.90;;;;;;5063472;28;20454;-60
2022/03/28 05:14:08;;;;;;;46.65;19.80;;;5.20;99.90;;;;;;5066961;28;20024;-57
2022/03/28 05:16:34;;;;;;;54.38;20.30;;;5.20;99.90;;;;;;5065796;28;20016;-58
2022/03/28 05:19:00;;;;;;;46.60;20.80;;;5.30;99.90;;;;;;5066494;28;20103;-53
2022/03/28 05:21:25;;;;;;;51.22;21.13;;;5.30;99.90;;;;;;5068172;28;20635;-55
2022/03/28 05:23:51;;;;;;;49.13;19.85;;;5.50;99.90;;;;;;5066713;28;20064;-53
2022/03/28 05:26:16;;;;;;;52.13;21.75;;;5.50;99.90;;;;;;5065285;28;20024;-57
2022/03/28 05:28:42;;;;;;;44.13;19.63;;;5.60;99.90;;;;;;5069682;28;20040;-56
2022/03/28 05:31:08;;;;;;;50.92;18.30;;;5.60;99.90;;;;;;5066407;28;20024;-54
2022/03/28 05:33:33;;;;;;;51.65;20.42;;;5.60;99.90;;;;;;5064259;28;20036;-56
2022/03/28 05:35:59;;;;;;;45.80;19.33;;;5.50;99.90;;;;;;5064144;28;20116;-56
2022/03/28 05:38:25;;;;;;;53.75;20.83;;;5.60;99.90;;;;;;5048733;28;20303;-55
2022/03/28 05:40:51;;;;;;;47.15;20.65;;;5.60;99.90;;;;;;5064386;28;20089;-56
2022/03/28 05:43:17;;;;;;;45.33;19.92;;;5.70;99.90;;;;;;5062382;28;20394;-56
2022/03/28 05:45:42;;;;;;;41.10;20.83;;;5.80;99.90;;;;;;5065207;28;20028;-55
2022/03/28 05:48:08;;;;;;;43.15;20.40;;;5.80;99.90;;;;;;5062652;28;20059;-58
2022/03/28 05:50:33;;;;;;;47.88;21.13;;;5.80;99.90;;;;;;5062228;28;20486;-57
2022/03/28 05:52:59;;;;;;;54.35;22.05;;;5.80;99.90;;;;;;5061067;28;20047;-54
2022/03/28 05:55:25;;;;;;;56.72;21.33;;;5.80;99.90;;;;;;5057761;28;20470;-56
2022/03/28 05:57:51;;;;;;;50.25;21.38;;;5.90;99.90;;;;;;5065973;28;20912;-56
2022/03/28 06:00:16;;;;;;;55.88;22.92;;;5.90;99.90;;;;;;5063647;28;20032;-58
2022/03/28 06:02:43;;;;;;;46.42;21.13;;;6.00;99.90;;;;;;5058353;28;20024;-57
2022/03/28 06:05:09;;;;;;;43.55;21.40;;;6.00;99.90;;;;;;5063506;28;20459;-57
2022/03/28 06:07:35;;;;;;;39.10;18.17;;;6.00;99.90;;;;;;5065298;28;20035;-51
2022/03/28 06:10:01;;;;;;;37.42;18.73;;;6.00;99.90;;;;;;5062207;28;20032;-57
2022/03/28 06:12:26;;;;;;;43.00;19.25;;;6.10;99.90;;;;;;5059152;28;20025;-54
2022/03/28 06:14:52;;;;;;;39.42;19.10;;;6.10;99.90;;;;;;5062808;28;20025;-56
2022/03/28 06:17:25;;;;;;;46.70;18.63;;;6.10;99.90;;;;;;5063699;28;20371;-55
2022/03/28 06:19:52;;;;;;;44.43;19.47;;;6.10;99.90;;;;;;5045535;28;20036;-53
2022/03/28 06:22:17;;;;;;;51.53;21.80;;;6.20;99.90;;;;;;5064783;28;20050;-56
2022/03/28 06:24:44;;;;;;;43.88;21.50;;;6.30;99.90;;;;;;5058270;28;20033;-56
2022/03/28 06:27:10;;;;;;;51.13;21.30;;;6.40;99.90;;;;;;5058029;28;20553;-57
2022/03/28 06:29:35;;;;;;;53.13;22.85;;;6.40;99.90;;;;;;5063011;28;20108;-55
2022/03/28 06:32:02;;;;;;;47.65;23.33;;;6.50;99.90;;;;;;5062497;28;20032;-57
2022/03/28 06:34:27;;;;;;;46.22;21.83;;;6.60;99.90;;;;;;5065262;28;20033;-55
2022/03/28 06:36:53;;;;;;;54.53;22.88;;;6.70;99.90;;;;;;5063121;28;20036;-54
2022/03/28 06:39:18;;;;;;;57.90;27.33;;;6.80;99.90;;;;;;5053721;28;20035;-57
2022/03/28 06:41:44;;;;;;;54.33;24.02;;;6.90;99.90;;;;;;5054436;28;20064;-57
2022/03/28 06:44:13;;;;;;;63.22;25.65;;;7.00;99.90;;;;;;5065349;28;20027;-56
2022/03/28 06:46:40;;;;;;;53.17;25.30;;;7.10;99.90;;;;;;5064888;28;20064;-56
2022/03/28 06:49:07;;;;;;;49.25;24.95;;;7.20;99.90;;;;;;5065175;28;20052;-56
2022/03/28 06:51:34;;;;;;;57.85;25.92;;;7.30;99.90;;;;;;5062154;28;20028;-56
2022/03/28 06:54:02;;;;;;;58.15;27.55;;;7.40;99.90;;;;;;5061447;28;20366;-55
2022/03/28 06:56:27;;;;;;;63.45;28.50;;;7.50;99.90;;;;;;5063576;28;20017;-56
2022/03/28 06:58:53;;;;;;;55.17;26.95;;;7.60;99.90;;;;;;5058350;28;20033;-57
2022/03/28 07:01:19;;;;;;;64.60;28.98;;;7.70;99.90;;;;;;5068610;28;20029;-56
2022/03/28 07:03:45;;;;;;;61.03;30.00;;;7.90;99.90;;;;;;5066873;28;20083;-58
2022/03/28 07:06:11;;;;;;;70.53;29.70;;;7.90;99.90;;;;;;5065400;28;20044;-56
2022/03/28 07:08:36;;;;;;;57.25;27.17;;;8.00;99.90;;;;;;5061885;28;20020;-56
2022/03/28 07:11:02;;;;;;;57.13;29.73;;;8.10;99.90;;;;;;5065187;28;20108;-55
2022/03/28 07:13:28;;;;;;;63.20;30.17;;;8.20;99.90;;;;;;5065661;28;20363;-53
2022/03/28 07:15:54;;;;;;;65.00;29.95;;;8.30;99.90;;;;;;5060128;28;20035;-58
2022/03/28 07:18:20;;;;;;;62.42;29.60;;;8.40;99.90;;;;;;5065380;28;20052;-58
2022/03/28 07:20:46;;;;;;;62.38;29.67;;;8.50;99.90;;;;;;5066537;28;20119;-57
2022/03/28 07:23:13;;;;;;;65.50;29.70;;;8.50;99.90;;;;;;5070038;28;20063;-56
2022/03/28 07:25:38;;;;;;;65.13;30.23;;;8.60;99.90;;;;;;5067811;28;20020;-58
2022/03/28 07:28:12;;;;;;;74.47;31.45;;;8.70;99.90;;;;;;5065041;28;20088;-58
2022/03/28 07:30:39;;;;;;;66.60;31.38;;;8.80;99.90;;;;;;5069825;28;20099;-56
2022/03/28 07:33:06;;;;;;;67.45;31.52;;;8.90;99.90;;;;;;5068521;28;20029;-58
2022/03/28 07:35:33;;;;;;;64.82;30.17;;;9.00;99.90;;;;;;5064788;28;20117;-57
2022/03/28 07:37:59;;;;;;;72.82;33.03;;;9.10;99.90;;;;;;5065200;28;20344;-53
2022/03/28 07:40:25;;;;;;;74.32;35.10;;;9.20;99.90;;;;;;5065561;28;20149;-53
2022/03/28 07:42:51;;;;;;;72.07;35.10;;;9.20;99.90;;;;;;5066652;28;20122;-56
2022/03/28 07:45:17;;;;;;;64.75;33.67;;;9.30;99.90;;;;;;5067104;28;20021;-55
2022/03/28 07:47:43;;;;;;;69.53;32.75;;;9.50;99.90;;;;;;5068730;28;20039;-55
2022/03/28 07:50:10;;;;;;;74.88;34.13;;;9.50;99.90;;;;;;5070607;28;20519;-56
2022/03/28 07:52:36;;;;;;;79.43;34.75;;;9.70;99.90;;;;;;5070902;28;20028;-55
2022/03/28 07:55:03;;;;;;;73.40;34.17;;;9.70;99.90;;;;;;5071255;28;20041;-56
2022/03/28 07:57:29;;;;;;;76.55;34.60;;;9.80;99.90;;;;;;5071001;28;20064;-54
2022/03/28 07:59:55;;;;;;;72.78;34.92;;;10.00;99.90;;;;;;5070843;28;20086;-56
2022/03/28 08:02:21;;;;;;;77.35;34.88;;;10.20;99.90;;;;;;5070696;28;20355;-56
2022/03/28 08:04:46;;;;;;;72.35;34.63;;;10.20;99.90;;;;;;5069097;28;20035;-58
2022/03/28 08:07:13;;;;;;;78.68;34.80;;;10.30;99.90;;;;;;5071035;28;20028;-54
2022/03/28 08:09:39;;;;;;;69.63;32.75;;;10.40;99.90;;;;;;5069223;28;20410;-55
2022/03/28 08:12:06;;;;;;;81.40;36.97;;;10.40;99.90;;;;;;5066920;28;20027;-58
2022/03/28 08:14:32;;;;;;;75.40;35.15;;;10.50;99.90;;;;;;5071326;28;20036;-58
2022/03/28 08:16:58;;;;;;;72.90;33.15;;;10.70;99.90;;;;;;5071424;28;20021;-55
2022/03/28 08:19:24;;;;;;;73.85;34.85;;;10.70;99.90;;;;;;5071639;28;20363;-54
2022/03/28 08:21:50;;;;;;;72.05;32.15;;;10.80;99.90;;;;;;5070864;28;20107;-56
2022/03/28 08:24:16;;;;;;;72.85;32.47;;;10.90;99.90;;;;;;5070737;28;20116;-56
2022/03/28 08:26:41;;;;;;;67.93;34.35;;;11.00;99.90;;;;;;5071559;28;20036;-56
2022/03/28 08:29:07;;;;;;;69.38;33.15;;;11.10;99.90;;;;;;5070778;28;20025;-56
2022/03/28 08:31:33;;;;;;;65.80;32.70;;;11.30;99.90;;;;;;5051586;28;20028;-55
2022/03/28 08:33:59;;;;;;;73.82;33.80;;;11.40;99.90;;;;;;5070662;28;20029;-56
2022/03/28 08:36:24;;;;;;;65.93;34.17;;;11.50;99.90;;;;;;5070684;28;20880;-57
2022/03/28 08:38:50;;;;;;;70.07;32.97;;;11.70;99.90;;;;;;5071387;28;20024;-55
2022/03/28 08:41:18;;;;;;;71.35;31.05;;;11.80;99.90;;;;;;5069720;28;20029;-56
2022/03/28 08:43:44;;;;;;;60.33;30.63;;;11.90;99.90;;;;;;5070097;28;20032;-56
2022/03/28 08:46:10;;;;;;;64.25;32.30;;;12.10;99.90;;;;;;5069162;28;20021;-55
2022/03/28 08:48:40;;;;;;;85.10;33.03;;;12.20;99.90;;;;;;5051458;28;20739;-57
2022/03/28 08:51:08;;;;;;;70.20;33.45;;;12.30;99.90;;;;;;5070115;28;20047;-55
2022/03/28 08:53:34;;;;;;;79.97;34.78;;;12.40;99.90;;;;;;5070882;28;20604;-58
2022/03/28 08:56:00;;;;;;;75.63;33.15;;;12.60;99.90;;;;;;5071270;28;20028;-58
2022/03/28 08:58:26;;;;;;;74.10;35.13;;;12.60;99.90;;;;;;5053612;28;20052;-55
2022/03/28 09:00:51;;;;;;;69.80;34.30;;;12.70;99.90;;;;;;5053927;28;20144;-53
2022/03/28 09:03:17;;;;;;;74.68;35.67;;;12.80;99.90;;;;;;5071335;28;20040;-54
2022/03/28 09:05:49;;;;;;;71.80;33.00;;;13.00;99.90;;;;;;5067850;28;20024;-55
2022/03/28 09:08:15;;;;;;;70.40;34.95;;;13.10;99.90;;;;;;5066096;28;20037;-57
2022/03/28 09:10:47;;;;;;;76.82;35.42;;;13.20;99.90;;;;;;5052905;28;20111;-59
2022/03/28 09:13:16;;;;;;;70.53;34.58;;;13.30;99.90;;;;;;5053249;28;20025;-55
2022/03/28 09:15:46;;;;;;;75.32;33.25;;;13.50;99.90;;;;;;5050325;28;20028;-55
2022/03/28 09:18:27;;;;;;;73.90;34.38;;;13.70;99.90;;;;;;5070287;28;20028;-56
2022/03/28 09:20:54;;;;;;;69.20;35.33;;;13.90;99.90;;;;;;5071583;28;20033;-60
2022/03/28 09:23:29;;;;;;;67.45;33.72;;;14.10;99.90;;;;;;5051420;28;20036;-55
2022/03/28 09:25:56;;;;;;;72.00;30.77;;;14.30;99.90;;;;;;5052742;28;20024;-56
2022/03/28 09:28:45;;;;;;;62.38;29.88;;;14.40;99.90;;;;;;5070586;28;20033;-58
2022/03/28 09:31:30;;;;;;;72.00;32.97;;;14.50;99.90;;;;;;5047176;28;20025;-55
2022/03/28 09:34:04;;;;;;;64.75;30.70;;;14.60;99.90;;;;;;5070890;28;20115;-58
2022/03/28 09:36:33;;;;;;;60.47;29.67;;;14.70;99.90;;;;;;5065274;28;20048;-56
2022/03/28 09:38:59;;;;;;;59.72;29.88;;;14.90;99.90;;;;;;5070743;28;20591;-56
2022/03/28 09:41:27;;;;;;;66.47;32.88;;;15.00;99.90;;;;;;5070445;28;20028;-57
2022/03/28 09:43:54;;;;;;;65.25;30.75;;;15.10;99.90;;;;;;5052350;28;20038;-57
2022/03/28 09:46:28;;;;;;;62.83;30.70;;;15.20;99.90;;;;;;5070389;28;20028;-56
2022/03/28 09:48:54;;;;;;;60.58;29.73;;;15.30;99.90;;;;;;5070600;28;20589;-57
2022/03/28 09:51:23;;;;;;;58.42;30.52;;;15.40;99.90;;;;;;5069665;28;20036;-56
2022/03/28 09:53:49;;;;;;;50.40;28.30;;;15.60;99.90;;;;;;5069872;28;20033;-54
2022/03/28 09:56:14;;;;;;;55.13;29.02;;;15.60;99.90;;;;;;5046741;28;20124;-57
2022/03/28 09:58:56;;;;;;;57.22;28.58;;;15.80;99.90;;;;;;5052700;28;20054;-57
2022/03/28 10:01:30;;;;;;;49.30;26.63;;;16.00;99.90;;;;;;5066030;28;20046;-57
2022/03/28 10:04:05;;;;;;;52.63;26.20;;;16.20;99.90;;;;;;5035451;28;20530;-55
2022/03/28 10:06:32;;;;;;;61.55;26.70;;;16.50;99.90;;;;;;5069740;28;20544;-57
2022/03/28 10:08:58;;;;;;;51.75;25.25;;;16.70;99.90;;;;;;5069085;28;20027;-54
2022/03/28 10:11:27;;;;;;;53.42;25.67;;;16.90;99.90;;;;;;5048532;28;20033;-56
2022/03/28 10:13:53;;;;;;;51.78;25.17;;;17.10;99.90;;;;;;5069609;28;20482;-56
2022/03/28 10:16:19;;;;;;;52.67;23.70;;;17.20;99.90;;;;;;5031936;28;20544;-57
2022/03/28 10:18:46;;;;;;;46.30;24.77;;;17.10;99.90;;;;;;5068323;28;20021;-57
2022/03/28 10:21:18;;;;;;;45.13;24.63;;;17.10;99.90;;;;;;5051187;28;20033;-56
2022/03/28 10:23:46;;;;;;;46.25;25.55;;;17.20;99.90;;;;;;5069159;28;20121;-57
2022/03/28 10:26:13;;;;;;;48.92;21.95;;;17.20;99.90;;;;;;5051341;28;20032;-55
2022/03/28 10:28:39;;;;;;;46.47;22.88;;;17.40;99.90;;;;;;5069224;28;20056;-57
2022/03/28 10:31:13;;;;;;;58.13;24.52;;;17.60;99.90;;;;;;5069952;28;20047;-57
2022/03/28 10:33:52;;;;;;;39.73;21.93;;;17.80;99.90;;;;;;5068201;28;20020;-57
2022/03/28 10:36:30;;;;;;;46.17;23.63;;;18.10;99.90;;;;;;5063790;28;20059;-56
2022/03/28 10:39:36;;;;;;;43.83;22.88;;;18.30;99.90;;;;;;5069626;28;20035;-57
2022/03/28 10:42:08;;;;;;;48.45;22.27;;;18.30;99.90;;;;;;5049877;28;20090;-57
2022/03/28 10:45:08;;;;;;;42.67;22.08;;;18.50;99.90;;;;;;5098464;22;20182;-56
2022/03/28 10:47:48;;;;;;;44.28;23.17;;;18.80;99.90;;;;;;5106748;28;20125;-58
2022/03/28 10:50:18;;;;;;;44.70;22.73;;;18.70;99.90;;;;;;5109495;28;20493;-58
2022/03/28 10:53:05;;;;;;;48.88;24.05;;;18.90;99.90;;;;;;5091389;28;20032;-58
2022/03/28 10:55:35;;;;;;;49.08;25.95;;;19.00;99.90;;;;;;5106026;28;20084;-56
2022/03/28 10:58:18;;;;;;;52.40;26.60;;;18.70;99.90;;;;;;5109676;28;20128;-56
2022/03/28 11:01:09;;;;;;;40.65;24.38;;;18.90;99.90;;;;;;5105466;28;20055;-54
2022/03/28 11:03:53;;;;;;;42.53;22.83;;;19.20;99.90;;;;;;5105031;28;20098;-58
2022/03/28 11:06:39;;;;;;;45.63;24.48;;;19.50;99.90;;;;;;5105816;28;20035;-57
2022/03/28 11:09:05;;;;;;;48.60;22.35;;;19.60;99.90;;;;;;5108458;28;20044;-57
2022/03/28 11:11:33;;;;;;;45.30;21.92;;;19.90;99.90;;;;;;5104868;28;20096;-58
2022/03/28 11:14:04;;;;;;;45.22;23.60;;;19.80;99.90;;;;;;5108430;28;20644;-57
2022/03/28 11:16:44;;;;;;;42.03;21.35;;;19.60;99.90;;;;;;5107999;28;20047;-58
2022/03/28 11:19:29;;;;;;;36.67;18.10;;;19.90;99.90;;;;;;5108298;28;20047;-58
2022/03/28 11:22:04;;;;;;;38.60;17.25;;;20.10;99.90;;;;;;5107852;28;20409;-57
2022/03/28 11:24:54;;;;;;;42.67;21.40;;;20.40;99.90;;;;;;5102215;28;20467;-57
2022/03/28 11:27:22;;;;;;;47.20;22.55;;;20.90;99.90;;;;;;5108633;28;20066;-58
2022/03/28 11:29:48;;;;;;;47.97;22.75;;;20.90;99.90;;;;;;5104806;28;20024;-56
2022/03/28 11:32:19;;;;;;;43.55;21.90;;;20.80;99.90;;;;;;5104858;28;20346;-57
2022/03/28 11:34:52;;;;;;;36.33;17.23;;;20.80;99.90;;;;;;5103741;28;20031;-57
2022/03/28 11:37:24;;;;;;;38.97;17.77;;;20.60;99.90;;;;;;5103518;28;20552;-54
2022/03/28 11:39:52;;;;;;;42.60;17.52;;;20.70;99.90;;;;;;5109284;28;20023;-56
2022/03/28 11:42:31;;;;;;;36.95;16.23;;;20.70;99.90;;;;;;5107076;28;20050;-55
2022/03/28 11:44:57;;;;;;;36.08;20.50;;;20.90;99.90;;;;;;5108422;28;20393;-57
2022/03/28 11:47:23;;;;;;;40.78;22.17;;;21.10;99.90;;;;;;5106644;28;20208;-55
2022/03/28 11:49:54;;;;;;;37.28;21.45;;;21.20;99.90;;;;;;5109540;28;20474;-56
2022/03/28 11:52:20;;;;;;;34.45;18.50;;;21.30;99.90;;;;;;5107066;28;20042;-55
2022/03/28 11:54:46;;;;;;;35.97;18.52;;;21.70;99.90;;;;;;5108418;28;20449;-55
2022/03/28 12:00:21;;;;;;;38.90;20.63;;;22.00;98.30;;;;;;5108040;28;20062;-57
2022/03/28 12:02:54;;;;;;;44.95;21.10;;;22.10;99.00;;;;;;5108745;28;20068;-55
2022/03/28 12:05:33;;;;;;;35.03;19.48;;;21.50;99.10;;;;;;5103149;28;20606;-58
2022/03/28 12:08:05;;;;;;;39.58;20.15;;;21.20;99.30;;;;;;5106068;28;20494;-55
2022/03/28 12:10:34;;;;;;;39.00;18.65;;;21.20;98.40;;;;;;5111746;28;20059;-55
2022/03/28 12:13:00;;;;;;;41.83;19.35;;;21.30;99.70;;;;;;5112052;28;20058;-58
2022/03/28 12:15:28;;;;;;;37.88;19.48;;;21.50;99.40;;;;;;5109148;28;20019;-55
2022/03/28 12:17:54;;;;;;;35.72;18.88;;;21.60;98.80;;;;;;5103104;28;20042;-58
2022/03/28 12:20:25;;;;;;;39.28;19.02;;;21.80;99.40;;;;;;5108142;28;20390;-58
2022/03/28 12:22:52;;;;;;;34.90;18.00;;;22.10;97.10;;;;;;5088429;28;20055;-57
2022/03/28 12:25:35;;;;;;;31.75;16.40;;;21.80;96.40;;;;;;5104672;28;20024;-55
2022/03/28 12:28:03;;;;;;;42.10;19.80;;;21.80;95.10;;;;;;5099494;28;20020;-61
2022/03/28 12:30:32;;;;;;;35.88;18.00;;;21.70;95.20;;;;;;5110650;28;20031;-58
2022/03/28 12:33:02;;;;;;;35.60;18.30;;;21.60;94.80;;;;;;5110894;28;20187;-57
2022/03/28 12:35:27;;;;;;;37.83;19.00;;;21.80;94.40;;;;;;5110969;28;20020;-56
2022/03/28 12:37:59;;;;;;;36.83;17.35;;;21.90;94.10;;;;;;5110213;28;20657;-59
2022/03/28 12:40:29;;;;;;;35.13;19.67;;;22.10;94.20;;;;;;5111816;28;20035;-58
2022/03/28 12:42:55;;;;;;;40.63;19.77;;;22.00;94.60;;;;;;5110600;28;20030;-57